Time,TemperatureF,DewpointF,PressureIn,WindDirection,WindDirectionDegrees,WindSpeedMPH,WindSpeedGustMPH,Humidity,HourlyPrecipIn,Conditions,Clouds,dailyrainin,SoftwareType,DateUTC
2013-04-13 00:03:00,55.0,29.2,29.76,SW,225,1.6,-999.0,37,-99.99,,,0.00,Acu-Link.com,2013-04-13 06:03:00,
2013-04-13 00:19:00,54.3,28.6,29.76,SSW,202,0.0,-999.0,37,-99.99,,,0.00,Acu-Link.com,2013-04-13 06:19:00,
2013-04-13 00:34:00,53.2,28.3,29.75,WNW,292,2.2,-999.0,38,-99.99,,,0.00,Acu-Link.com,2013-04-13 06:34:00,
2013-04-13 00:49:00,53.1,30.0,29.76,West,270,1.1,-999.0,41,-99.99,,,0.00,Acu-Link.com,2013-04-13 06:49:00,
2013-04-13 01:04:00,52.7,28.4,29.75,SSW,202,0.0,-999.0,39,-99.99,,,0.00,Acu-Link.com,2013-04-13 07:04:00,
2013-04-13 01:20:00,52.2,29.2,29.74,ENE,67,2.7,-999.0,41,-99.99,,,0.00,Acu-Link.com,2013-04-13 07:20:00,
2013-04-13 01:35:00,51.1,28.8,29.74,WSW,247,0.0,-999.0,42,-99.99,,,0.00,Acu-Link.com,2013-04-13 07:35:00,
2013-04-13 01:50:00,50.2,28.6,29.74,West,270,2.2,-999.0,43,-99.99,,,0.00,Acu-Link.com,2013-04-13 07:50:00,
2013-04-13 02:06:00,50.0,28.4,29.75,WNW,292,1.6,-999.0,43,-99.99,,,0.00,Acu-Link.com,2013-04-13 08:06:00,
2013-04-13 02:52:00,50.0,28.4,29.74,West,270,3.1,-999.0,43,-99.99,,,0.00,Acu-Link.com,2013-04-13 08:52:00,
2013-04-13 03:07:00,48.9,28.0,29.74,East,90,2.2,-999.0,44,-99.99,,,0.00,Acu-Link.com,2013-04-13 09:07:00,
2013-04-13 03:22:00,48.7,26.7,29.74,NE,45,5.1,-999.0,42,-99.99,,,0.00,Acu-Link.com,2013-04-13 09:22:00,
2013-04-13 03:37:00,48.4,26.9,29.74,NE,45,3.1,-999.0,43,-99.99,,,0.00,Acu-Link.com,2013-04-13 09:37:00,
2013-04-13 03:53:00,47.7,26.8,29.73,NNE,22,1.6,-999.0,44,-99.99,,,0.00,Acu-Link.com,2013-04-13 09:53:00,
2013-04-13 04:23:00,44.8,27.8,29.73,NNW,337,0.0,-999.0,51,-99.99,,,0.00,Acu-Link.com,2013-04-13 10:23:00,
2013-04-13 04:53:00,43.3,26.0,29.74,NE,45,2.2,-999.0,50,-99.99,,,0.00,Acu-Link.com,2013-04-13 10:53:00,
2013-04-13 05:09:00,42.8,25.5,29.74,ESE,112,1.1,-999.0,50,-99.99,,,0.00,Acu-Link.com,2013-04-13 11:09:00,
2013-04-13 05:24:00,41.9,26.0,29.74,ENE,67,0.0,-999.0,53,-99.99,,,0.00,Acu-Link.com,2013-04-13 11:24:00,
2013-04-13 05:39:00,41.4,26.0,29.74,NNW,337,0.0,-999.0,54,-99.99,,,0.00,Acu-Link.com,2013-04-13 11:39:00,
2013-04-13 05:54:00,41.4,25.5,29.74,North,0,0.0,-999.0,53,-99.99,,,0.00,Acu-Link.com,2013-04-13 11:54:00,
2013-04-13 06:09:00,40.8,25.0,29.75,NNW,337,1.6,-999.0,53,-99.99,,,0.00,Acu-Link.com,2013-04-13 12:09:00,
2013-04-13 06:25:00,40.6,25.3,29.74,NNW,337,1.1,-999.0,54,-99.99,,,0.00,Acu-Link.com,2013-04-13 12:25:00,
2013-04-13 06:40:00,40.3,25.0,29.75,WNW,292,0.0,-999.0,54,-99.99,,,0.00,Acu-Link.com,2013-04-13 12:40:00,
2013-04-13 06:55:00,40.5,24.2,29.75,NE,45,0.0,-999.0,52,-99.99,,,0.00,Acu-Link.com,2013-04-13 12:55:00,
2013-04-13 07:10:00,44.6,25.1,29.75,NE,45,4.3,-999.0,46,-99.99,,,0.00,Acu-Link.com,2013-04-13 13:10:00,
2013-04-13 07:25:00,46.0,25.4,29.76,NW,315,1.6,-999.0,44,-99.99,,,0.00,Acu-Link.com,2013-04-13 13:25:00,
2013-04-13 07:40:00,46.9,24.5,29.76,NNW,337,3.8,-999.0,41,-99.99,,,0.00,Acu-Link.com,2013-04-13 13:40:00,
2013-04-13 07:56:00,48.9,25.1,29.76,SE,135,3.8,-999.0,39,-99.99,,,0.00,Acu-Link.com,2013-04-13 13:56:00,
2013-04-13 08:26:00,55.0,27.2,29.76,NE,45,2.7,-999.0,34,-99.99,,,0.00,Acu-Link.com,2013-04-13 14:26:00,
2013-04-13 08:41:00,56.5,26.2,29.77,ENE,67,4.3,-999.0,31,-99.99,,,0.00,Acu-Link.com,2013-04-13 14:41:00,
2013-04-13 08:57:00,56.1,26.7,29.77,ENE,67,5.1,-999.0,32,-99.99,,,0.00,Acu-Link.com,2013-04-13 14:57:00,
2013-04-13 09:12:00,54.5,26.7,29.77,NE,45,4.3,-999.0,34,-99.99,,,0.00,Acu-Link.com,2013-04-13 15:12:00,
2013-04-13 09:27:00,55.9,27.3,29.77,ENE,67,2.2,-999.0,33,-99.99,,,0.00,Acu-Link.com,2013-04-13 15:27:00,
2013-04-13 09:42:00,57.4,27.0,29.76,East,90,1.6,-999.0,31,-99.99,,,0.00,Acu-Link.com,2013-04-13 15:42:00,
2013-04-13 09:57:00,57.7,27.3,29.76,NNW,337,3.1,-999.0,31,-99.99,,,0.00,Acu-Link.com,2013-04-13 15:57:00,
2013-04-13 10:13:00,61.3,27.1,29.75,NE,45,2.7,-999.0,27,-99.99,,,0.00,Acu-Link.com,2013-04-13 16:13:00,
2013-04-13 10:28:00,63.0,27.5,29.74,NE,45,2.7,-999.0,26,-99.99,,,0.00,Acu-Link.com,2013-04-13 16:28:00,
2013-04-13 10:43:00,62.8,27.4,29.74,West,270,2.7,-999.0,26,-99.99,,,0.00,Acu-Link.com,2013-04-13 16:43:00,
2013-04-13 10:58:00,65.8,27.0,29.73,NNW,337,1.6,-999.0,23,-99.99,,,0.00,Acu-Link.com,2013-04-13 16:58:00,
2013-04-13 11:14:00,66.0,27.2,29.74,WSW,247,3.8,-999.0,23,-99.99,,,0.00,Acu-Link.com,2013-04-13 17:14:00,
2013-04-13 11:29:00,67.1,27.0,29.72,SW,225,2.7,-999.0,22,-99.99,,,0.00,Acu-Link.com,2013-04-13 17:29:00,
2013-04-13 11:44:00,67.8,25.3,29.71,SSW,202,3.1,-999.0,20,-99.99,,,0.00,Acu-Link.com,2013-04-13 17:44:00,
2013-04-13 11:59:00,71.1,26.7,29.71,West,270,3.1,-999.0,19,-99.99,,,0.00,Acu-Link.com,2013-04-13 17:59:00,
2013-04-13 12:14:00,69.6,25.5,29.70,South,180,3.8,-999.0,19,-99.99,,,0.00,Acu-Link.com,2013-04-13 18:14:00,
2013-04-13 12:29:00,71.8,26.0,29.68,ESE,112,4.3,-999.0,18,-99.99,,,0.00,Acu-Link.com,2013-04-13 18:29:00,
2013-04-13 12:45:00,71.4,25.7,29.67,WSW,247,3.1,-999.0,18,-99.99,,,0.00,Acu-Link.com,2013-04-13 18:45:00,
2013-04-13 13:00:00,73.2,22.8,29.66,SW,225,1.1,-999.0,15,-99.99,,,0.00,Acu-Link.com,2013-04-13 19:00:00,
2013-04-13 13:15:00,75.4,26.1,29.65,SSE,157,7.4,-999.0,16,-99.99,,,0.00,Acu-Link.com,2013-04-13 19:15:00,
2013-04-13 13:30:00,74.7,23.9,29.62,ESE,112,4.3,-999.0,15,-99.99,,,0.00,Acu-Link.com,2013-04-13 19:30:00,
2013-04-13 13:45:00,77.2,18.6,29.61,SSE,157,7.4,-999.0,11,-99.99,,,0.00,Acu-Link.com,2013-04-13 19:45:00,
2013-04-13 14:01:00,75.9,17.6,29.61,West,270,7.8,-999.0,11,-99.99,,,0.00,Acu-Link.com,2013-04-13 20:01:00,
2013-04-13 14:31:00,75.9,15.5,29.60,SW,225,11.9,-999.0,10,-99.99,,,0.00,Acu-Link.com,2013-04-13 20:31:00,
2013-04-13 14:46:00,76.6,18.2,29.59,West,270,11.0,-999.0,11,-99.99,,,0.00,Acu-Link.com,2013-04-13 20:46:00,
2013-04-13 15:02:00,76.3,20.0,29.59,West,270,6.7,-999.0,12,-99.99,,,0.00,Acu-Link.com,2013-04-13 21:02:00,
2013-04-13 15:17:00,79.3,20.3,29.57,West,270,10.3,-999.0,11,-99.99,,,0.00,Acu-Link.com,2013-04-13 21:17:00,
2013-04-13 15:32:00,76.6,20.2,29.55,West,270,8.9,-999.0,12,-99.99,,,0.00,Acu-Link.com,2013-04-13 21:32:00,
2013-04-13 15:47:00,75.6,21.3,29.55,WSW,247,11.0,-999.0,13,-99.99,,,0.00,Acu-Link.com,2013-04-13 21:47:00,
2013-04-13 16:02:00,75.9,21.5,29.54,West,270,9.8,-999.0,13,-99.99,,,0.00,Acu-Link.com,2013-04-13 22:02:00,
2013-04-13 16:18:00,76.5,22.0,29.53,WSW,247,8.3,-999.0,13,-99.99,,,0.00,Acu-Link.com,2013-04-13 22:18:00,
2013-04-13 16:33:00,78.1,23.2,29.53,WSW,247,11.9,-999.0,13,-99.99,,,0.00,Acu-Link.com,2013-04-13 22:33:00,
2013-04-13 16:48:00,77.2,22.5,29.52,NNW,337,11.9,-999.0,13,-99.99,,,0.00,Acu-Link.com,2013-04-13 22:48:00,
2013-04-13 17:03:00,77.5,20.9,29.52,WSW,247,11.9,-999.0,12,-99.99,,,0.00,Acu-Link.com,2013-04-13 23:03:00,
2013-04-13 17:18:00,77.4,20.8,29.51,West,270,14.5,-999.0,12,-99.99,,,0.00,Acu-Link.com,2013-04-13 23:18:00,
2013-04-13 17:34:00,75.2,21.0,29.51,WNW,292,8.9,-999.0,13,-99.99,,,0.00,Acu-Link.com,2013-04-13 23:34:00,
2013-04-13 17:49:00,74.7,20.6,29.50,SW,225,8.9,-999.0,13,-99.99,,,0.00,Acu-Link.com,2013-04-13 23:49:00,
2013-04-13 18:04:00,73.4,19.6,29.50,West,270,8.3,-999.0,13,-99.99,,,0.00,Acu-Link.com,2013-04-14 00:04:00,
2013-04-13 18:19:00,72.9,17.3,29.51,West,270,9.4,-999.0,12,-99.99,,,0.00,Acu-Link.com,2013-04-14 00:19:00,
2013-04-13 18:34:00,73.8,16.0,29.50,West,270,11.0,-999.0,11,-99.99,,,0.00,Acu-Link.com,2013-04-14 00:34:00,
2013-04-13 18:50:00,72.7,17.2,29.50,West,270,16.6,-999.0,12,-99.99,,,0.00,Acu-Link.com,2013-04-14 00:50:00,
2013-04-13 19:05:00,72.3,16.9,29.50,WSW,247,11.4,-999.0,12,-99.99,,,0.00,Acu-Link.com,2013-04-14 01:05:00,
2013-04-13 19:20:00,70.7,15.6,29.50,West,270,7.8,-999.0,12,-99.99,,,0.00,Acu-Link.com,2013-04-14 01:20:00,
2013-04-13 19:35:00,70.0,16.9,29.51,NW,315,8.9,-999.0,13,-99.99,,,0.00,Acu-Link.com,2013-04-14 01:35:00,
2013-04-13 19:51:00,68.9,16.0,29.50,WNW,292,6.3,-999.0,13,-99.99,,,0.00,Acu-Link.com,2013-04-14 01:51:00,
2013-04-13 20:21:00,67.5,16.6,29.51,WSW,247,6.7,-999.0,14,-99.99,,,0.00,Acu-Link.com,2013-04-14 02:21:00,
2013-04-13 20:36:00,66.7,16.0,29.50,SW,225,6.3,-999.0,14,-99.99,,,0.00,Acu-Link.com,2013-04-14 02:36:00,
2013-04-13 20:51:00,65.7,16.8,29.50,WSW,247,2.2,-999.0,15,-99.99,,,0.00,Acu-Link.com,2013-04-14 02:51:00,
2013-04-13 21:07:00,65.3,18.0,29.50,West,270,8.3,-999.0,16,-99.99,,,0.00,Acu-Link.com,2013-04-14 03:07:00,
2013-04-13 21:22:00,64.9,17.7,29.51,West,270,3.1,-999.0,16,-99.99,,,0.00,Acu-Link.com,2013-04-14 03:22:00,
2013-04-13 21:37:00,64.2,18.5,29.52,WSW,247,2.7,-999.0,17,-99.99,,,0.00,Acu-Link.com,2013-04-14 03:37:00,
2013-04-13 21:52:00,64.2,19.8,29.53,SW,225,4.7,-999.0,18,-99.99,,,0.00,Acu-Link.com,2013-04-14 03:52:00,
2013-04-13 22:07:00,63.9,19.5,29.52,WSW,247,6.3,-999.0,18,-99.99,,,0.00,Acu-Link.com,2013-04-14 04:07:00,
2013-04-13 22:23:00,64.6,20.1,29.51,SW,225,9.8,-999.0,18,-99.99,,,0.00,Acu-Link.com,2013-04-14 04:23:00,
2013-04-13 22:38:00,64.4,21.3,29.52,WNW,292,13.4,-999.0,19,-99.99,,,0.00,Acu-Link.com,2013-04-14 04:38:00,
2013-04-13 22:53:00,63.9,23.2,29.51,West,270,9.8,-999.0,21,-99.99,,,0.00,Acu-Link.com,2013-04-14 04:53:00,
2013-04-13 23:08:00,63.3,22.7,29.51,WSW,247,8.9,-999.0,21,-99.99,,,0.00,Acu-Link.com,2013-04-14 05:08:00,
2013-04-13 23:23:00,62.4,23.1,29.50,WNW,292,5.8,-999.0,22,-99.99,,,0.00,Acu-Link.com,2013-04-14 05:23:00,
2013-04-13 23:39:00,61.9,22.6,29.51,WSW,247,2.7,-999.0,22,-99.99,,,0.00,Acu-Link.com,2013-04-14 05:39:00,
2013-04-13 23:54:00,60.8,22.8,29.52,SW,225,1.6,-999.0,23,-99.99,,,0.00,Acu-Link.com,2013-04-14 05:54:00,